createdAt,value
2022-09-18T00:01:20.163Z,98212.28
2022-09-18T00:03:47.832Z,98217.88
2022-09-18T00:06:23.322Z,98206.56
2022-09-18T00:08:52.449Z,98200.38
2022-09-18T00:11:21.244Z,98197.13
2022-09-18T00:13:49.123Z,98197.38
2022-09-18T00:16:17.569Z,98187.78
2022-09-18T00:18:44.956Z,98198.28
2022-09-18T00:21:18.688Z,98196.97
2022-09-18T00:23:46.207Z,98191.59
2022-09-18T00:26:14.768Z,98193.47
2022-09-18T00:28:41.758Z,98192.19
2022-09-18T00:31:11.994Z,98194.88
2022-09-18T00:33:40.101Z,98206.72
2022-09-18T00:36:09.635Z,98205.13
2022-09-18T00:38:36.680Z,98202.09
2022-09-18T00:41:09.271Z,98198.28
2022-09-18T00:43:37.748Z,98199.56
2022-09-18T00:46:27.782Z,98194.44
2022-09-18T00:49:08.073Z,98180.13
2022-09-18T00:51:35.759Z,98178.66
2022-09-18T00:54:13.671Z,98187.78
2022-09-18T00:56:41.272Z,98192.22
2022-09-18T00:59:11.031Z,98188.97
2022-09-18T01:01:38.122Z,98190.25
2022-09-18T01:04:09.528Z,98191.09
2022-09-18T01:07:10.604Z,98190.03
2022-09-18T01:09:49.875Z,98187.84
2022-09-18T01:12:33.968Z,98188.56
2022-09-18T01:15:10.597Z,98195.44
2022-09-18T01:17:56.238Z,98198.13
2022-09-18T01:20:26.390Z,98203.16
2022-09-18T01:23:02.468Z,98201.56
2022-09-18T01:25:51.146Z,98195.94
2022-09-18T01:28:26.452Z,98198.28
2022-09-18T01:30:56.912Z,98186.16
2022-09-18T01:33:26.144Z,98205.19
2022-09-18T01:35:55.677Z,98194.94
2022-09-18T01:38:45.447Z,98206.47
2022-09-18T01:41:25.043Z,98206.38
2022-09-18T01:43:56.285Z,98208.25
2022-09-18T01:46:25.575Z,98207.19
2022-09-18T01:49:03.179Z,98209.16
2022-09-18T01:51:42.111Z,98206.94
2022-09-18T01:54:15.734Z,98212.81
2022-09-18T01:56:54.160Z,98213.84
2022-09-18T01:59:58.656Z,98208.25
2022-09-18T02:02:33.433Z,98219.47
2022-09-18T02:05:03.636Z,98215.63
2022-09-18T02:07:42.113Z,98216.41
2022-09-18T02:10:10.461Z,98212.34
2022-09-18T02:12:40.188Z,98215.88
2022-09-18T02:15:13.513Z,98215.63
2022-09-18T02:17:58.680Z,98220.41
2022-09-18T02:20:42.917Z,98210.72
2022-09-18T02:23:11.249Z,98211.31
2022-09-18T02:26:04.547Z,98204.31
2022-09-18T02:28:33.683Z,98208.53
2022-09-18T02:31:01.295Z,98200.38
2022-09-18T02:33:33.473Z,98205.66
2022-09-18T02:36:17.984Z,98214.97
2022-09-18T02:38:57.110Z,98218.97
2022-09-18T02:41:36.623Z,98220.56
2022-09-18T02:44:10.411Z,98225.44
2022-09-18T02:47:08.760Z,98223.56
2022-09-18T02:49:58.328Z,98225.94
2022-09-18T02:52:37.354Z,98229.19
2022-09-18T02:55:13.069Z,98233.97
2022-09-18T02:57:47.267Z,98236.56
2022-09-18T03:00:18.738Z,98227.69
2022-09-18T03:02:50.351Z,98232.47
2022-09-18T03:05:29.114Z,98229.22
2022-09-18T03:07:59.192Z,98226.44
2022-09-18T03:10:27.801Z,98229.69
2022-09-18T03:12:54.875Z,98233.75
2022-09-18T03:15:22.436Z,98228.88
2022-09-18T03:17:51.072Z,98231.56
2022-09-18T03:20:18.187Z,98226.69
2022-09-18T03:22:45.184Z,98223.16
2022-09-18T03:25:14.547Z,98230.50
2022-09-18T03:27:43.285Z,98229.00
2022-09-18T03:30:14.835Z,98231.19
2022-09-18T03:32:44.072Z,98227.44
2022-09-18T03:35:13.823Z,98228.84
2022-09-18T03:37:41.810Z,98225.44
2022-09-18T03:40:11.095Z,98232.09
2022-09-18T03:42:39.365Z,98232.41
2022-09-18T03:45:09.149Z,98232.28
2022-09-18T03:47:36.796Z,98228.91
2022-09-18T03:50:06.814Z,98226.06
2022-09-18T03:52:35.448Z,98225.13
2022-09-18T03:55:11.813Z,98224.63
2022-09-18T03:58:10.723Z,98209.34
2022-09-18T04:01:00.729Z,98226.41
2022-09-18T04:03:37.706Z,98223.13
2022-09-18T04:06:25.940Z,98230.38
2022-09-18T04:09:13.132Z,98221.53
2022-09-18T04:11:47.200Z,98222.91
2022-09-18T04:14:14.900Z,98225.19
2022-09-18T04:16:41.848Z,98223.75
2022-09-18T04:19:09.444Z,98222.00
2022-09-18T04:21:38.860Z,98215.66
2022-09-18T04:24:06.788Z,98212.25
2022-09-18T04:26:35.196Z,98222.84
2022-09-18T04:29:05.360Z,98211.22
2022-09-18T04:31:37.795Z,98216.00
2022-09-18T04:34:09.735Z,98216.66
2022-09-18T04:36:39.164Z,98223.31
2022-09-18T04:39:07.863Z,98217.94
2022-09-18T04:41:36.987Z,98218.16
2022-09-18T04:44:07.510Z,98218.06
2022-09-18T04:46:40.071Z,98217.69
2022-09-18T04:49:07.066Z,98223.00
2022-09-18T04:51:34.119Z,98221.75
2022-09-18T04:54:01.919Z,98229.31
2022-09-18T04:56:28.843Z,98221.53
2022-09-18T04:58:57.430Z,98222.56
2022-09-18T05:01:24.568Z,98226.00
2022-09-18T05:03:51.667Z,98215.31
2022-09-18T05:06:27.260Z,98210.78
2022-09-18T05:08:54.249Z,98212.03
2022-09-18T05:11:24.647Z,98211.84
2022-09-18T05:13:56.932Z,98211.03
2022-09-18T05:16:26.847Z,98205.16
2022-09-18T05:19:25.052Z,98202.06
2022-09-18T05:21:59.265Z,98202.75
2022-09-18T05:24:26.413Z,98198.47
2022-09-18T05:26:53.343Z,98196.97
2022-09-18T05:29:21.967Z,98203.16
2022-09-18T05:31:51.271Z,98192.63
2022-09-18T05:34:18.460Z,98182.31
2022-09-18T05:36:46.497Z,98174.31
2022-09-18T05:39:17.588Z,98182.56
2022-09-18T05:41:49.846Z,98179.19
2022-09-18T05:44:18.123Z,98177.00
2022-09-18T05:46:49.796Z,98178.19
2022-09-18T05:49:17.365Z,98174.44
2022-09-18T05:51:46.342Z,98176.88
2022-09-18T05:54:16.934Z,98181.84
2022-09-18T05:56:47.898Z,98198.34
2022-09-18T05:59:17.669Z,98185.88
2022-09-18T06:01:49.006Z,98181.03
2022-09-18T06:04:21.699Z,98174.56
2022-09-18T06:06:57.001Z,98178.94
2022-09-18T06:09:26.113Z,98171.97
2022-09-18T06:11:55.089Z,98160.19
2022-09-18T06:14:23.128Z,98170.38
2022-09-18T06:16:50.655Z,98157.19
2022-09-18T06:19:17.690Z,98159.59
2022-09-18T06:21:57.120Z,98167.69
2022-09-18T06:24:24.560Z,98164.50
2022-09-18T06:27:02.163Z,98167.13
2022-09-18T06:29:29.059Z,98162.25
2022-09-18T06:32:03.115Z,98172.03
2022-09-18T06:34:34.450Z,98169.03
2022-09-18T06:37:06.639Z,98166.63
2022-09-18T06:39:42.863Z,98161.25
2022-09-18T06:42:16.821Z,98165.84
2022-09-18T06:45:02.336Z,98171.25
2022-09-18T06:47:31.465Z,98168.31
2022-09-18T06:49:58.548Z,98168.56
2022-09-18T06:52:30.065Z,98173.97
2022-09-18T06:55:00.204Z,98175.03
2022-09-18T06:57:31.652Z,98176.03
2022-09-18T06:59:59.511Z,98173.00
2022-09-18T07:02:31.450Z,98168.06
2022-09-18T07:05:07.873Z,98166.56
2022-09-18T07:07:38.882Z,98172.28
2022-09-18T07:10:09.152Z,98166.41
2022-09-18T07:12:49.001Z,98169.88
2022-09-18T07:15:20.219Z,98159.06
2022-09-18T07:17:47.400Z,98160.47
2022-09-18T07:20:17.028Z,98152.69
2022-09-18T07:22:52.644Z,98152.22
2022-09-18T07:25:20.638Z,98149.06
2022-09-18T07:27:48.966Z,98137.09
2022-09-18T07:30:18.497Z,98126.41
2022-09-18T07:32:46.926Z,98126.75
2022-09-18T07:35:17.700Z,98137.75
2022-09-18T07:37:44.702Z,98122.16
2022-09-18T07:40:21.168Z,98129.19
2022-09-18T07:43:01.572Z,98118.50
2022-09-18T07:45:29.359Z,98122.69
2022-09-18T07:47:56.815Z,98116.91
2022-09-18T07:50:24.106Z,98109.03
2022-09-18T07:52:54.471Z,98103.69
2022-09-18T07:55:31.812Z,98092.69
2022-09-18T07:58:01.710Z,98089.88
2022-09-18T08:00:52.080Z,98087.00
2022-09-18T08:03:21.244Z,98081.22
2022-09-18T08:05:56.915Z,98068.34
2022-09-18T08:08:24.777Z,98073.59
2022-09-18T08:10:55.823Z,98067.13
2022-09-18T08:13:43.000Z,98050.00
2022-09-18T08:16:36.421Z,98059.31
2022-09-18T08:19:24.435Z,98051.88
2022-09-18T08:21:56.058Z,98051.53
2022-09-18T08:24:23.257Z,98037.59
2022-09-18T08:26:50.421Z,98037.41
2022-09-18T08:29:23.691Z,98027.94
2022-09-18T08:32:03.552Z,98023.34
2022-09-18T08:34:34.597Z,98021.16
2022-09-18T08:37:06.388Z,98021.53
2022-09-18T08:40:02.188Z,98015.09
2022-09-18T08:42:37.849Z,98020.22
2022-09-18T08:45:20.100Z,98023.47
2022-09-18T08:47:56.654Z,98017.31
2022-09-18T08:50:38.722Z,98007.25
2022-09-18T08:53:19.169Z,98002.59
2022-09-18T08:56:25.749Z,97997.75
2022-09-18T08:59:34.826Z,97993.63
2022-09-18T09:02:24.237Z,98000.91
2022-09-18T09:04:58.324Z,98000.28
2022-09-18T09:07:53.219Z,97986.88
2022-09-18T09:10:28.685Z,97983.66
2022-09-18T09:13:20.166Z,97986.97
2022-09-18T09:15:54.941Z,97984.25
2022-09-18T09:18:22.535Z,97981.09
2022-09-18T09:20:58.792Z,97984.00
2022-09-18T09:23:38.824Z,97969.00
2022-09-18T09:26:21.925Z,97957.94
2022-09-18T09:29:14.758Z,97962.25
2022-09-18T09:31:58.691Z,97953.69
2022-09-18T09:34:53.254Z,97955.38
2022-09-18T09:37:43.818Z,97956.19
2022-09-18T09:40:43.573Z,97958.09
2022-09-18T09:43:13.678Z,97956.31
2022-09-18T09:45:49.991Z,97950.84
2022-09-18T09:48:45.590Z,97955.38
2022-09-18T09:51:36.820Z,97946.66
2022-09-18T09:54:09.859Z,97933.47
2022-09-18T09:57:17.825Z,97931.38
2022-09-18T10:00:14.052Z,97942.31
2022-09-18T10:03:15.081Z,97937.38
2022-09-18T10:05:53.496Z,97930.75
2022-09-18T10:08:42.241Z,97931.19
2022-09-18T10:11:12.438Z,97926.03
2022-09-18T10:13:51.444Z,97918.06
2022-09-18T10:16:28.598Z,97916.75
2022-09-18T10:18:57.891Z,97915.06
2022-09-18T10:21:27.605Z,97913.19
2022-09-18T10:23:59.175Z,97904.44
2022-09-18T10:26:31.781Z,97901.72
2022-09-18T10:29:00.592Z,97897.69
2022-09-18T10:31:48.848Z,97904.88
2022-09-18T10:34:46.028Z,97902.47
2022-09-18T10:37:30.108Z,97891.91
2022-09-18T10:40:11.051Z,97894.91
2022-09-18T10:42:39.320Z,97887.94
2022-09-18T10:45:27.005Z,97883.47
2022-09-18T10:48:23.540Z,97889.22
2022-09-18T10:51:02.586Z,97881.41
2022-09-18T10:53:42.762Z,97882.56
2022-09-18T10:56:23.166Z,97874.16
2022-09-18T10:58:54.592Z,97866.28
2022-09-18T11:01:24.582Z,97864.41
2022-09-18T11:04:02.529Z,97856.97
2022-09-18T11:06:35.604Z,97858.75
2022-09-18T11:09:31.334Z,97854.91
2022-09-18T11:11:59.037Z,97852.00
2022-09-18T11:14:33.302Z,97856.94
2022-09-18T11:17:04.616Z,97846.88
2022-09-18T11:19:39.453Z,97838.72
2022-09-18T11:22:53.694Z,97842.69
2022-09-18T11:25:31.251Z,97829.75
2022-09-18T11:28:30.800Z,97818.13
2022-09-18T11:31:03.282Z,97809.81
2022-09-18T11:33:37.958Z,97808.38
2022-09-18T11:36:10.858Z,97805.66
2022-09-18T11:38:43.311Z,97794.31
2022-09-18T11:41:13.733Z,97789.47
2022-09-18T11:44:06.156Z,97776.16
2022-09-18T11:47:12.710Z,97779.00
2022-09-18T11:49:46.023Z,97782.66
2022-09-18T11:52:19.220Z,97763.09
2022-09-18T11:55:08.993Z,97759.28
2022-09-18T11:57:40.567Z,97748.63
2022-09-18T12:00:24.704Z,97737.56
2022-09-18T12:03:29.439Z,97734.50
2022-09-18T12:06:01.707Z,97732.66
2022-09-18T12:08:48.397Z,97738.06
2022-09-18T12:11:18.419Z,97726.91
2022-09-18T12:14:00.186Z,97723.53
2022-09-18T12:17:08.393Z,97715.53
2022-09-18T12:19:42.832Z,97716.00
2022-09-18T12:22:18.050Z,97719.03
2022-09-18T12:24:46.049Z,97705.41
2022-09-18T12:27:48.552Z,97702.22
2022-09-18T12:30:16.985Z,97688.81
2022-09-18T12:32:49.241Z,97684.56
2022-09-18T12:35:16.104Z,97677.56
2022-09-18T12:37:42.963Z,97676.25
2022-09-18T12:40:48.113Z,97669.00
2022-09-18T12:43:14.959Z,97660.41
2022-09-18T12:46:05.784Z,97662.03
2022-09-18T12:48:55.913Z,97660.41
2022-09-18T12:51:38.859Z,97652.66
2022-09-18T12:54:16.582Z,97655.09
2022-09-18T12:57:02.304Z,97651.66
2022-09-18T12:59:52.506Z,97656.06
2022-09-18T13:02:43.170Z,97649.34
2022-09-18T13:05:36.599Z,97635.84
2022-09-18T13:08:28.414Z,97640.09
2022-09-18T13:11:34.538Z,97634.41
2022-09-18T13:14:15.925Z,97625.78
2022-09-18T13:16:50.450Z,97612.53
2022-09-18T13:19:35.826Z,97603.13
2022-09-18T13:22:07.446Z,97609.63
2022-09-18T13:24:36.001Z,97610.16
2022-09-18T13:27:04.956Z,97617.94
2022-09-18T13:29:52.995Z,97615.25
2022-09-18T13:32:23.067Z,97605.00
2022-09-18T13:34:55.856Z,97603.13
2022-09-18T13:37:29.394Z,97600.66
2022-09-18T13:40:10.104Z,97577.94
2022-09-18T13:42:40.938Z,97571.75
2022-09-18T13:45:18.174Z,97570.38
2022-09-18T13:48:23.025Z,97576.78
2022-09-18T13:50:59.750Z,97565.19
2022-09-18T13:53:32.324Z,97561.69
2022-09-18T13:56:00.070Z,97559.00
2022-09-18T13:58:54.623Z,97560.59
2022-09-18T14:01:40.121Z,97553.84
2022-09-18T14:04:40.907Z,97555.47
2022-09-18T14:07:17.163Z,97545.00
2022-09-18T14:10:03.829Z,97537.75
2022-09-18T14:12:35.345Z,97534.81
2022-09-18T14:15:17.111Z,97533.19
2022-09-18T14:18:07.993Z,97521.59
2022-09-18T14:20:35.370Z,97530.56
2022-09-18T14:23:36.126Z,97516.03
2022-09-18T14:26:08.646Z,97515.56
2022-09-18T14:28:38.095Z,97514.50
2022-09-18T14:31:33.081Z,97514.50
2022-09-18T14:34:02.684Z,97508.59
2022-09-18T14:36:47.023Z,97503.19
2022-09-18T14:39:27.357Z,97501.53
2022-09-18T14:42:09.012Z,97491.03
2022-09-18T14:44:37.085Z,97489.41
2022-09-18T14:47:09.173Z,97498.81
2022-09-18T14:49:43.713Z,97494.47
2022-09-18T14:52:22.710Z,97486.06
2022-09-18T14:54:52.069Z,97476.09
2022-09-18T14:57:36.509Z,97474.47
2022-09-18T15:00:08.151Z,97466.66
2022-09-18T15:02:36.664Z,97461.28
2022-09-18T15:05:19.429Z,97453.66
2022-09-18T15:07:53.409Z,97450.97
2022-09-18T15:10:20.870Z,97444.75
2022-09-18T15:12:47.955Z,97427.81
2022-09-18T15:15:26.531Z,97426.44
2022-09-18T15:18:00.168Z,97419.19
2022-09-18T15:20:28.902Z,97413.78
2022-09-18T15:22:56.908Z,97416.50
2022-09-18T15:25:28.191Z,97412.19
2022-09-18T15:27:56.457Z,97409.19
2022-09-18T15:30:27.982Z,97410.81
2022-09-18T15:33:05.381Z,97402.72
2022-09-18T15:35:35.503Z,97406.00
2022-09-18T15:38:06.019Z,97402.47
2022-09-18T15:40:38.475Z,97407.00
2022-09-18T15:43:14.672Z,97419.44
2022-09-18T15:46:03.259Z,97403.72
2022-09-18T15:48:37.803Z,97409.97
2022-09-18T15:51:17.066Z,97406.94
2022-09-18T15:54:04.740Z,97391.28
2022-09-18T15:56:34.354Z,97391.28
2022-09-18T15:59:04.364Z,97388.84
2022-09-18T16:01:41.072Z,97392.13
2022-09-18T16:04:18.050Z,97396.16
2022-09-18T16:07:01.575Z,97396.41
2022-09-18T16:09:43.299Z,97387.47
2022-09-18T16:12:30.186Z,97387.97
2022-09-18T16:15:02.759Z,97379.88
2022-09-18T16:17:33.766Z,97370.72
2022-09-18T16:20:37.388Z,97375.53
2022-09-18T16:23:10.798Z,97350.69
2022-09-18T16:25:41.533Z,97348.78
2022-09-18T16:28:25.012Z,97356.63
2022-09-18T16:30:52.464Z,97373.91
2022-09-18T16:33:25.102Z,97365.50
2022-09-18T16:36:03.031Z,97357.94
2022-09-18T16:38:32.633Z,97360.91
2022-09-18T16:40:59.628Z,97353.59
2022-09-18T16:43:26.826Z,97350.09
2022-09-18T16:45:55.120Z,97346.88
2022-09-18T16:48:26.986Z,97345.81
2022-09-18T16:50:54.123Z,97344.19
2022-09-18T16:53:23.697Z,97340.41
2022-09-18T16:55:55.430Z,97341.22
2022-09-18T16:58:23.479Z,97334.69
2022-09-18T17:00:50.930Z,97325.53
2022-09-18T17:03:18.246Z,97325.22
2022-09-18T17:05:48.880Z,97324.66
2022-09-18T17:08:20.952Z,97314.94
2022-09-18T17:10:48.377Z,97310.13
2022-09-18T17:13:18.152Z,97308.00
2022-09-18T17:15:45.255Z,97310.41
2022-09-18T17:18:12.371Z,97305.81
2022-09-18T17:20:39.620Z,97295.00
2022-09-18T17:23:07.246Z,97299.81
2022-09-18T17:25:34.340Z,97287.72
2022-09-18T17:28:01.705Z,97287.91
2022-09-18T17:30:28.840Z,97282.22
2022-09-18T17:32:55.910Z,97287.34
2022-09-18T17:35:22.859Z,97283.03
2022-09-18T17:37:51.851Z,97270.31
2022-09-18T17:40:23.185Z,97275.44
2022-09-18T17:42:50.593Z,97272.75
2022-09-18T17:45:17.892Z,97276.25
2022-09-18T17:47:44.944Z,97276.47
2022-09-18T17:50:13.518Z,97279.66
2022-09-18T17:52:40.744Z,97271.06
2022-09-18T17:55:08.976Z,97266.16
2022-09-18T17:57:39.593Z,97266.97
2022-09-18T18:00:07.352Z,97262.38
2022-09-18T18:02:45.548Z,97255.06
2022-09-18T18:05:17.985Z,97247.75
2022-09-18T18:07:45.115Z,97233.19
2022-09-18T18:10:14.396Z,97235.34
2022-09-18T18:12:41.409Z,97229.97
2022-09-18T18:15:09.151Z,97222.94
2022-09-18T18:17:44.223Z,97226.94
2022-09-18T18:20:14.829Z,97222.38
2022-09-18T18:22:42.222Z,97222.66
2022-09-18T18:25:12.678Z,97205.66
2022-09-18T18:27:39.927Z,97207.56
2022-09-18T18:30:08.964Z,97195.44
2022-09-18T18:32:36.941Z,97199.44
2022-09-18T18:35:10.599Z,97199.66
2022-09-18T18:37:37.849Z,97203.66
2022-09-18T18:40:05.338Z,97208.25
2022-09-18T18:42:35.073Z,97200.44
2022-09-18T18:45:02.729Z,97190.44
2022-09-18T18:47:30.988Z,97177.75
2022-09-18T18:49:58.129Z,97164.25
2022-09-18T18:52:26.464Z,97160.44
2022-09-18T18:54:53.598Z,97155.81
2022-09-18T18:57:21.688Z,97148.91
2022-09-18T18:59:48.633Z,97155.91
2022-09-18T19:02:17.912Z,97164.31
2022-09-18T19:04:45.683Z,97164.31
2022-09-18T19:07:19.031Z,97168.09
2022-09-18T19:09:46.020Z,97178.72
2022-09-18T19:12:17.535Z,97181.94
2022-09-18T19:14:44.620Z,97172.19
2022-09-18T19:17:11.572Z,97170.81
2022-09-18T19:19:39.321Z,97167.81
2022-09-18T19:22:08.648Z,97163.50
2022-09-18T19:24:36.080Z,97143.88
2022-09-18T19:27:05.966Z,97150.31
2022-09-18T19:29:33.335Z,97140.88
2022-09-18T19:32:00.791Z,97136.56
2022-09-18T19:34:27.928Z,97127.66
2022-09-18T19:37:20.163Z,97125.19
2022-09-18T19:39:50.411Z,97106.94
2022-09-18T19:42:17.622Z,97116.25
2022-09-18T19:44:52.573Z,97115.78
2022-09-18T19:50:32.436Z,97116.34
2022-09-18T19:53:03.547Z,97118.16
2022-09-18T19:55:30.698Z,97104.47
2022-09-18T19:57:59.468Z,97106.28
2022-09-18T20:00:26.691Z,97103.59
2022-09-18T20:02:57.940Z,97100.28
2022-09-18T20:05:26.211Z,97101.69
2022-09-18T20:07:53.663Z,97090.88
2022-09-18T20:10:20.756Z,97080.88
2022-09-18T20:12:47.826Z,97056.84
2022-09-18T20:15:14.914Z,97062.25
2022-09-18T20:17:41.994Z,97058.75
2022-09-18T20:20:16.139Z,97052.25
2022-09-18T20:22:43.846Z,97036.06
2022-09-18T20:25:10.965Z,97033.81
2022-09-18T20:27:40.081Z,97035.44
2022-09-18T20:30:09.203Z,97024.94
2022-09-18T20:32:36.442Z,97020.81
2022-09-18T20:35:03.520Z,97018.91
2022-09-18T20:37:32.911Z,97013.84
2022-09-18T20:40:03.212Z,97019.44
2022-09-18T20:42:32.578Z,96993.22
2022-09-18T20:45:02.541Z,96986.72
2022-09-18T20:47:34.968Z,96983.41
2022-09-18T20:50:11.769Z,96960.41
2022-09-18T20:52:43.143Z,96917.47
2022-09-18T20:55:15.615Z,96893.13
2022-09-18T20:57:46.591Z,96852.16
2022-09-18T21:00:16.368Z,96844.50
2022-09-18T21:02:44.278Z,96852.63
2022-09-18T21:05:14.762Z,96823.72
2022-09-18T21:07:45.781Z,96814.69
2022-09-18T21:10:16.282Z,96826.59
2022-09-18T21:12:43.398Z,96846.81
2022-09-18T21:15:14.582Z,96814.09
2022-09-18T21:17:46.250Z,96821.38
2022-09-18T21:20:15.116Z,96844.28
2022-09-18T21:23:09.593Z,96828.28
2022-09-18T21:25:36.815Z,96815.72
2022-09-18T21:28:06.104Z,96826.16
2022-09-18T21:30:33.077Z,96871.50
2022-09-18T21:33:00.322Z,96884.09
2022-09-18T21:35:27.500Z,96863.66
2022-09-18T21:37:55.455Z,96842.53
2022-09-18T21:40:22.559Z,96809.47
2022-09-18T21:42:49.610Z,96805.66
2022-09-18T21:45:20.743Z,96838.28
2022-09-18T21:47:49.886Z,96838.28
2022-09-18T21:50:16.927Z,96861.50
2022-09-18T21:52:46.834Z,96864.69
2022-09-18T21:55:13.792Z,96856.78
2022-09-18T21:57:40.883Z,96847.56
2022-09-18T22:00:09.551Z,96856.66
2022-09-18T22:02:41.157Z,96861.75
2022-09-18T22:05:11.787Z,96849.53
2022-09-18T22:07:38.955Z,96840.31
2022-09-18T22:10:06.816Z,96830.28
2022-09-18T22:12:36.723Z,96830.28
2022-09-18T22:15:05.746Z,96818.69
2022-09-18T22:17:32.626Z,96817.84
2022-09-18T22:19:59.575Z,96812.94
2022-09-18T22:22:27.344Z,96820.44
2022-09-18T22:24:56.612Z,96812.50
2022-09-18T22:27:26.345Z,96812.69
2022-09-18T22:29:55.600Z,96820.50
2022-09-18T22:32:22.543Z,96824.19
2022-09-18T22:34:51.082Z,96813.84
2022-09-18T22:37:18.118Z,96815.75
2022-09-18T22:39:45.038Z,96802.72
2022-09-18T22:42:14.967Z,96818.66
2022-09-18T22:44:41.887Z,96806.72
2022-09-18T22:47:11.815Z,96799.88
2022-09-18T22:49:38.709Z,96797.97
2022-09-18T22:52:05.693Z,96791.47
2022-09-18T22:54:32.879Z,96771.91
2022-09-18T22:56:59.846Z,96767.56
2022-09-18T22:59:27.591Z,96762.66
2022-09-18T23:01:58.958Z,96755.97
2022-09-18T23:04:29.209Z,96740.34
2022-09-18T23:06:57.553Z,96719.84
2022-09-18T23:09:25.105Z,96716.16
2022-09-18T23:11:53.422Z,96709.94
2022-09-18T23:14:23.050Z,96716.28
2022-09-18T23:16:50.965Z,96714.22
2022-09-18T23:19:23.777Z,96708.13
2022-09-18T23:21:51.923Z,96714.78
2022-09-18T23:24:19.191Z,96709.09
2022-09-18T23:26:48.038Z,96710.16
2022-09-18T23:29:17.337Z,96718.63
2022-09-18T23:31:58.984Z,96708.88
2022-09-18T23:34:31.486Z,96706.31
2022-09-18T23:36:59.018Z,96708.22
2022-09-18T23:39:34.114Z,96696.16
2022-09-18T23:42:02.485Z,96698.41
2022-09-18T23:44:31.280Z,96683.31
2022-09-18T23:47:00.119Z,96695.41
2022-09-18T23:49:27.487Z,96680.78
2022-09-18T23:51:55.120Z,96678.38
2022-09-18T23:54:24.498Z,96682.19
2022-09-18T23:56:52.482Z,96679.97
2022-09-18T23:59:22.809Z,96663.75
